Station: EBSP - 19/09/2020 07:51Z (il y a 11 minutes)
EBSP 190750Z AUTO 16014KT CAVOK 17/07 Q1018
Vent du 160º - 14 kt
Visibilité > 10 km et plafond haut ou pas de nuages significatifs
Température: +17ºC - Point de rosée: +07ºC - QNH: 1018 hPa